createdAt,value
2022-11-10T00:00:15.389Z,49.20
2022-11-10T00:03:15.691Z,53.20
2022-11-10T00:06:06.919Z,45.80
2022-11-10T00:08:53.348Z,57.35
2022-11-10T00:11:39.457Z,56.63
2022-11-10T00:14:43.848Z,47.10
2022-11-10T00:17:30.084Z,48.80
2022-11-10T00:20:16.508Z,50.72
2022-11-10T00:23:02.382Z,45.90
2022-11-10T00:25:48.499Z,48.35
2022-11-10T00:28:34.512Z,46.78
2022-11-10T00:31:21.437Z,51.00
2022-11-10T00:34:11.188Z,42.53
2022-11-10T00:36:57.491Z,42.88
2022-11-10T00:39:43.450Z,49.38
2022-11-10T00:42:30.002Z,43.83
2022-11-10T00:45:16.086Z,49.97
2022-11-10T00:48:02.316Z,48.13
2022-11-10T00:50:48.176Z,46.95
2022-11-10T00:53:34.407Z,48.85
2022-11-10T00:56:21.985Z,46.22
2022-11-10T00:59:08.248Z,51.47
2022-11-10T01:01:53.895Z,49.30
2022-11-10T01:04:40.092Z,51.28
2022-11-10T01:07:26.002Z,47.75
2022-11-10T01:10:12.923Z,54.03
2022-11-10T01:12:59.302Z,53.50
2022-11-10T01:15:45.470Z,47.75
2022-11-10T01:18:31.681Z,47.47
2022-11-10T01:21:20.446Z,54.30
2022-11-10T01:24:06.759Z,49.88
2022-11-10T01:26:53.026Z,46.88
2022-11-10T01:29:39.401Z,49.30
2022-11-10T01:32:25.510Z,46.15
2022-11-10T01:35:11.977Z,48.30
2022-11-10T01:37:58.863Z,55.65
2022-11-10T01:40:45.869Z,55.58
2022-11-10T01:43:33.240Z,46.15
2022-11-10T01:46:19.479Z,50.00
2022-11-10T01:49:06.838Z,47.80
2022-11-10T01:52:11.154Z,50.05
2022-11-10T01:54:57.627Z,48.63
2022-11-10T01:57:44.421Z,53.63
2022-11-10T02:00:31.000Z,53.05
2022-11-10T02:03:20.759Z,54.15
2022-11-10T02:06:08.825Z,53.20
2022-11-10T02:08:55.964Z,48.60
2022-11-10T02:11:44.024Z,52.03
2022-11-10T02:14:30.405Z,47.70
2022-11-10T02:17:17.422Z,50.97
2022-11-10T02:20:11.932Z,49.38
2022-11-10T02:22:58.110Z,48.00
2022-11-10T02:25:44.228Z,46.20
2022-11-10T02:28:35.829Z,51.75
2022-11-10T02:31:21.924Z,51.33
2022-11-10T02:34:08.317Z,60.55
2022-11-10T02:36:54.434Z,46.28
2022-11-10T02:39:40.696Z,48.55
2022-11-10T02:42:27.020Z,46.92
2022-11-10T02:45:13.338Z,45.20
2022-11-10T02:47:59.136Z,51.92
2022-11-10T02:50:45.923Z,50.53
2022-11-10T02:53:32.145Z,48.20
2022-11-10T02:56:18.344Z,50.75
2022-11-10T02:59:05.097Z,48.80
2022-11-10T03:01:51.455Z,51.35
2022-11-10T03:04:37.709Z,54.10
2022-11-10T03:07:24.347Z,52.08
2022-11-10T03:10:10.620Z,44.47
2022-11-10T03:13:01.892Z,56.40
2022-11-10T03:15:48.755Z,52.45
2022-11-10T03:18:35.021Z,50.17
2022-11-10T03:21:21.226Z,53.88
2022-11-10T03:24:08.026Z,52.13
2022-11-10T03:26:53.984Z,51.00
2022-11-10T03:29:40.743Z,49.47
2022-11-10T03:32:26.462Z,49.17
2022-11-10T03:35:12.932Z,52.67
2022-11-10T03:37:58.569Z,51.58
2022-11-10T03:41:17.027Z,56.95
2022-11-10T03:43:51.884Z,47.45
2022-11-10T03:46:40.580Z,48.10
2022-11-10T03:49:29.854Z,49.15
2022-11-10T03:52:16.802Z,54.28
2022-11-10T03:55:03.736Z,48.97
2022-11-10T03:57:50.140Z,49.30
2022-11-10T04:00:36.119Z,52.65
2022-11-10T04:03:23.929Z,47.78
2022-11-10T04:06:30.684Z,45.80
2022-11-10T04:09:17.162Z,46.58
2022-11-10T04:12:24.849Z,52.20
2022-11-10T04:15:31.574Z,49.50
2022-11-10T04:18:26.869Z,50.67
2022-11-10T04:21:13.106Z,48.10
2022-11-10T04:23:59.113Z,47.13
2022-11-10T04:26:47.547Z,49.00
2022-11-10T04:29:34.306Z,49.97
2022-11-10T04:32:20.403Z,55.90
2022-11-10T04:35:06.567Z,52.80
2022-11-10T04:37:52.793Z,50.55
2022-11-10T04:40:38.779Z,57.53
2022-11-10T04:43:25.613Z,57.55
2022-11-10T04:46:22.242Z,53.83
2022-11-10T04:49:08.711Z,48.80
2022-11-10T04:51:54.708Z,58.55
2022-11-10T04:54:41.435Z,58.88
2022-11-10T04:57:27.505Z,52.92
2022-11-10T05:00:14.812Z,51.88
2022-11-10T05:03:04.545Z,50.13
2022-11-10T05:05:51.012Z,56.25
2022-11-10T05:08:39.172Z,48.22
2022-11-10T05:11:25.976Z,52.25
2022-11-10T05:14:12.043Z,47.25
2022-11-10T05:16:58.307Z,53.28
2022-11-10T05:19:44.577Z,57.58
2022-11-10T05:22:30.700Z,55.50
2022-11-10T05:25:16.864Z,64.20
2022-11-10T05:28:04.881Z,54.28
2022-11-10T05:30:50.727Z,61.25
2022-11-10T05:33:38.049Z,54.25
2022-11-10T05:36:23.950Z,53.28
2022-11-10T05:39:10.612Z,54.03
2022-11-10T05:41:57.370Z,52.92
2022-11-10T05:44:43.799Z,59.13
2022-11-10T05:47:29.641Z,56.70
2022-11-10T05:50:17.644Z,51.33
2022-11-10T05:53:03.559Z,49.50
2022-11-10T05:55:50.140Z,49.72
2022-11-10T05:58:36.603Z,56.38
2022-11-10T06:01:23.501Z,49.22
2022-11-10T06:04:09.635Z,57.08
2022-11-10T06:06:55.877Z,55.95
2022-11-10T06:09:42.069Z,54.15
2022-11-10T06:12:31.107Z,55.53
2022-11-10T06:15:17.193Z,52.33
2022-11-10T06:18:03.687Z,65.55
2022-11-10T06:20:49.735Z,56.45
2022-11-10T06:23:35.986Z,61.40
2022-11-10T06:26:22.043Z,58.35
2022-11-10T06:29:08.178Z,57.55
2022-11-10T06:31:53.960Z,55.05
2022-11-10T06:34:40.162Z,52.35
2022-11-10T06:37:26.345Z,70.40
2022-11-10T06:40:16.670Z,79.40
2022-11-10T06:43:03.118Z,81.40
2022-11-10T06:45:49.801Z,86.60
2022-11-10T06:48:35.541Z,68.60
2022-11-10T06:51:21.574Z,63.97
2022-11-10T06:54:07.800Z,66.00
2022-11-10T06:56:53.919Z,59.75
2022-11-10T06:59:40.015Z,65.10
2022-11-10T07:02:26.245Z,65.38
2022-11-10T07:05:12.539Z,58.63
2022-11-10T07:08:06.522Z,66.72
2022-11-10T07:10:55.472Z,60.75
2022-11-10T07:13:43.143Z,56.25
2022-11-10T07:16:29.648Z,61.42
2022-11-10T07:19:15.969Z,53.92
2022-11-10T07:22:06.642Z,72.18
2022-11-10T07:24:55.939Z,67.35
2022-11-10T07:27:42.057Z,57.47
2022-11-10T07:30:30.433Z,60.15
2022-11-10T07:33:16.612Z,52.70
2022-11-10T07:36:04.624Z,55.88
2022-11-10T07:38:50.776Z,60.17
2022-11-10T07:41:37.004Z,49.03
2022-11-10T07:44:22.800Z,49.60
2022-11-10T07:47:08.938Z,47.03
2022-11-10T07:49:55.135Z,61.22
2022-11-10T07:52:41.210Z,67.15
2022-11-10T07:55:27.610Z,61.97
2022-11-10T07:58:18.070Z,57.95
2022-11-10T08:01:04.219Z,64.90
2022-11-10T08:03:51.697Z,60.00
2022-11-10T08:06:38.095Z,64.97
2022-11-10T08:09:24.773Z,54.85
2022-11-10T08:12:11.160Z,56.70
2022-11-10T08:14:57.295Z,58.90
2022-11-10T08:17:43.114Z,61.95
2022-11-10T08:20:29.911Z,55.50
2022-11-10T08:23:17.805Z,59.67
2022-11-10T08:26:04.470Z,60.90
2022-11-10T08:28:50.556Z,61.00
2022-11-10T08:31:38.275Z,59.30
2022-11-10T08:34:24.354Z,63.33
2022-11-10T08:37:10.606Z,59.05
2022-11-10T08:39:56.522Z,60.05
2022-11-10T08:42:42.867Z,65.53
2022-11-10T08:45:29.404Z,65.13
2022-11-10T08:48:19.068Z,62.17
2022-11-10T08:53:51.304Z,66.60
2022-11-10T08:56:37.307Z,70.75
2022-11-10T08:59:23.654Z,71.05
2022-11-10T09:02:10.801Z,68.93
2022-11-10T09:04:57.149Z,75.25
2022-11-10T09:07:48.005Z,81.80
2022-11-10T09:10:37.861Z,71.78
2022-11-10T09:13:29.446Z,79.80
2022-11-10T09:16:16.931Z,67.47
2022-11-10T09:19:03.028Z,73.68
2022-11-10T09:21:49.304Z,71.30
2022-11-10T09:24:35.308Z,70.47
2022-11-10T09:27:21.813Z,68.53
2022-11-10T09:30:11.815Z,67.00
2022-11-10T09:33:03.613Z,68.60
2022-11-10T09:35:49.661Z,64.65
2022-11-10T09:38:36.011Z,60.53
2022-11-10T09:41:22.227Z,62.97
2022-11-10T09:44:30.897Z,59.30
2022-11-10T09:50:46.746Z,59.13
2022-11-10T09:54:06.234Z,60.97
2022-11-10T09:59:44.282Z,59.13
2022-11-10T10:02:56.207Z,61.75
2022-11-10T10:05:54.029Z,58.75
2022-11-10T10:09:24.564Z,56.70
2022-11-10T10:12:37.517Z,51.30
2022-11-10T10:15:42.520Z,52.53
2022-11-10T10:19:13.520Z,48.42
2022-11-10T10:22:23.652Z,52.35
2022-11-10T10:25:22.104Z,46.13
2022-11-10T10:28:27.472Z,50.63
2022-11-10T10:31:27.395Z,48.85
2022-11-10T10:34:17.503Z,47.92
2022-11-10T10:37:03.672Z,52.17
2022-11-10T10:39:55.228Z,48.25
2022-11-10T10:42:41.228Z,50.85
2022-11-10T10:45:29.891Z,48.83
2022-11-10T10:48:31.031Z,52.40
2022-11-10T10:51:30.652Z,44.20
2022-11-10T10:54:29.736Z,48.33
2022-11-10T10:57:32.195Z,45.33
2022-11-10T11:00:19.922Z,47.78
2022-11-10T11:03:25.182Z,46.67
2022-11-10T11:06:14.934Z,48.45
2022-11-10T11:09:20.089Z,47.13
2022-11-10T11:12:25.569Z,38.38
2022-11-10T11:15:30.602Z,38.70
2022-11-10T11:18:20.805Z,47.67
2022-11-10T11:21:13.097Z,42.33
2022-11-10T11:24:30.414Z,40.58
2022-11-10T11:27:46.072Z,47.80
2022-11-10T11:30:53.963Z,52.15
2022-11-10T11:34:13.895Z,50.88
2022-11-10T11:37:37.139Z,53.63
2022-11-10T11:41:08.014Z,46.78
2022-11-10T11:44:00.759Z,50.80
2022-11-10T11:47:30.422Z,48.47
2022-11-10T11:50:43.927Z,44.65
2022-11-10T11:53:37.110Z,48.60
2022-11-10T11:56:27.552Z,52.65
2022-11-10T11:59:56.567Z,51.38
2022-11-10T12:02:56.212Z,51.05
2022-11-10T12:06:07.252Z,43.63
2022-11-10T12:09:39.773Z,46.80
2022-11-10T12:13:07.211Z,42.97
2022-11-10T12:16:18.052Z,48.00
2022-11-10T12:19:23.417Z,42.15
2022-11-10T12:22:41.573Z,43.08
2022-11-10T12:25:49.522Z,43.85
2022-11-10T12:29:05.231Z,43.17
2022-11-10T12:31:58.837Z,44.83
2022-11-10T12:34:52.384Z,36.88
2022-11-10T12:37:53.180Z,36.13
2022-11-10T12:41:04.976Z,39.30
2022-11-10T12:45:02.180Z,37.10
2022-11-10T12:47:49.579Z,41.97
2022-11-10T12:50:59.862Z,33.22
2022-11-10T12:53:47.911Z,33.15
2022-11-10T12:57:07.014Z,41.22
2022-11-10T13:00:28.071Z,33.90
2022-11-10T13:03:31.679Z,37.65
2022-11-10T13:06:40.351Z,44.50
2022-11-10T13:09:33.911Z,40.70
2022-11-10T13:12:23.389Z,49.88
2022-11-10T13:15:37.674Z,38.05
2022-11-10T13:18:32.608Z,42.85
2022-11-10T13:21:39.258Z,40.72
2022-11-10T13:24:29.966Z,46.10
2022-11-10T13:27:38.024Z,42.75
2022-11-10T13:30:52.726Z,49.70
2022-11-10T13:33:39.499Z,51.78
2022-11-10T13:36:48.003Z,44.47
2022-11-10T13:39:37.180Z,43.03
2022-11-10T13:45:42.266Z,40.08
2022-11-10T13:49:16.362Z,44.85
2022-11-10T13:52:20.625Z,45.65
2022-11-10T13:55:20.814Z,41.72
2022-11-10T13:58:40.296Z,41.33
2022-11-10T14:01:30.615Z,41.33
2022-11-10T14:04:40.619Z,40.58
2022-11-10T14:10:45.391Z,37.80
2022-11-10T14:13:43.872Z,37.47
2022-11-10T14:16:33.148Z,25.65
2022-11-10T14:19:45.681Z,32.00
2022-11-10T14:22:43.160Z,26.15
2022-11-10T14:25:39.696Z,26.83
2022-11-10T14:28:34.354Z,24.45
2022-11-10T14:31:24.314Z,25.35
2022-11-10T14:34:18.570Z,26.50
2022-11-10T14:37:05.169Z,29.65
2022-11-10T14:39:55.659Z,30.63
2022-11-10T14:42:41.326Z,25.17
2022-11-10T14:45:28.698Z,36.60
2022-11-10T14:48:24.876Z,29.40
2022-11-10T14:51:19.121Z,28.73
2022-11-10T14:54:07.247Z,40.65
2022-11-10T14:56:56.304Z,31.17
2022-11-10T14:59:42.294Z,44.08
2022-11-10T15:02:29.627Z,43.25
2022-11-10T15:05:16.480Z,47.92
2022-11-10T15:08:04.717Z,48.38
2022-11-10T15:10:58.817Z,48.15
2022-11-10T15:13:45.005Z,49.20
2022-11-10T15:16:38.703Z,54.47
2022-11-10T15:19:30.448Z,51.78
2022-11-10T15:22:35.099Z,57.88
2022-11-10T15:25:32.847Z,58.72
2022-11-10T15:28:35.373Z,57.35
2022-11-10T15:31:31.635Z,64.80
2022-11-10T15:34:45.471Z,56.33
2022-11-10T15:37:32.244Z,60.03
2022-11-10T15:40:44.542Z,62.80
2022-11-10T15:43:30.832Z,57.20
2022-11-10T15:46:24.459Z,55.90
2022-11-10T15:49:26.111Z,58.13
2022-11-10T15:52:17.460Z,58.13
2022-11-10T15:55:06.716Z,57.78
2022-11-10T15:57:53.178Z,58.35
2022-11-10T16:00:39.638Z,56.78
2022-11-10T16:03:25.787Z,56.70
2022-11-10T16:06:16.508Z,56.00
2022-11-10T16:09:02.549Z,60.45
2022-11-10T16:11:49.306Z,52.78
2022-11-10T16:14:35.506Z,57.75
2022-11-10T16:17:22.152Z,60.67
2022-11-10T16:20:15.083Z,55.45
2022-11-10T16:23:01.143Z,65.50
2022-11-10T16:25:51.476Z,54.50
2022-11-10T16:28:38.030Z,65.50
2022-11-10T16:31:26.089Z,65.25
2022-11-10T16:34:14.938Z,72.50
2022-11-10T16:37:01.336Z,64.35
2022-11-10T16:39:47.429Z,65.47
2022-11-10T16:42:33.959Z,69.68
2022-11-10T16:45:30.149Z,64.05
2022-11-10T16:48:21.940Z,66.85
2022-11-10T16:51:08.920Z,56.78
2022-11-10T16:53:54.736Z,52.30
2022-11-10T16:56:40.869Z,50.10
2022-11-10T16:59:27.026Z,51.47
2022-11-10T17:02:33.722Z,56.60
2022-11-10T17:05:19.553Z,58.15
2022-11-10T17:08:06.973Z,54.38
2022-11-10T17:10:56.781Z,60.65
2022-11-10T17:13:43.025Z,61.65
2022-11-10T17:16:34.612Z,63.60
2022-11-10T17:19:26.480Z,68.28
2022-11-10T17:22:21.437Z,73.32
2022-11-10T17:25:25.000Z,63.75
2022-11-10T17:28:17.751Z,67.40
2022-11-10T17:31:04.537Z,67.90
2022-11-10T17:33:50.666Z,67.18
2022-11-10T17:36:37.257Z,72.00
2022-11-10T17:39:23.401Z,78.25
2022-11-10T17:42:15.594Z,67.80
2022-11-10T17:45:01.223Z,67.85
2022-11-10T17:47:49.493Z,68.65
2022-11-10T17:50:38.160Z,71.63
2022-11-10T17:53:28.378Z,70.15
2022-11-10T17:56:14.793Z,81.93
2022-11-10T17:59:01.772Z,73.28
2022-11-10T18:01:48.172Z,67.88
2022-11-10T18:04:34.480Z,70.43
2022-11-10T18:07:20.513Z,68.45
2022-11-10T18:10:13.042Z,68.60
2022-11-10T18:12:59.990Z,78.15
2022-11-10T18:15:48.143Z,83.50
2022-11-10T18:18:34.865Z,99.53
2022-11-10T18:21:21.778Z,101.28
2022-11-10T18:24:08.606Z,93.15
2022-11-10T18:26:54.965Z,96.45
2022-11-10T18:29:41.053Z,90.05
2022-11-10T18:32:27.904Z,79.88
2022-11-10T18:35:14.929Z,74.90
2022-11-10T18:38:01.538Z,70.00
2022-11-10T18:40:48.797Z,69.95
2022-11-10T18:43:35.120Z,58.58
2022-11-10T18:46:21.351Z,56.53
2022-11-10T18:49:07.884Z,52.30
2022-11-10T18:51:53.864Z,48.45
2022-11-10T18:54:40.192Z,52.03
2022-11-10T18:57:26.957Z,54.05
2022-11-10T19:00:14.869Z,53.88
2022-11-10T19:03:00.757Z,52.70
2022-11-10T19:05:55.660Z,52.15
2022-11-10T19:08:45.120Z,52.25
2022-11-10T19:11:34.064Z,50.10
2022-11-10T19:14:20.360Z,48.17
2022-11-10T19:17:07.115Z,50.88
2022-11-10T19:19:56.422Z,50.33
2022-11-10T19:22:43.609Z,50.38
2022-11-10T19:25:29.774Z,55.35
2022-11-10T19:28:16.481Z,52.15
2022-11-10T19:31:14.781Z,56.33
2022-11-10T19:34:01.153Z,56.30
2022-11-10T19:36:49.141Z,57.83
2022-11-10T19:39:35.271Z,49.63
2022-11-10T19:42:21.324Z,53.65
2022-11-10T19:45:09.455Z,51.28
2022-11-10T19:47:57.271Z,48.15
2022-11-10T19:50:49.144Z,53.00
2022-11-10T19:53:35.874Z,48.13
2022-11-10T19:56:26.241Z,54.03
2022-11-10T19:59:15.406Z,52.67
2022-11-10T20:02:01.802Z,53.47
2022-11-10T20:05:07.357Z,51.78
2022-11-10T20:08:11.915Z,50.75
2022-11-10T20:11:17.162Z,53.50
2022-11-10T20:14:05.621Z,55.90
2022-11-10T20:16:52.515Z,45.85
2022-11-10T20:23:12.229Z,51.00
2022-11-10T20:26:14.313Z,53.65
2022-11-10T20:29:00.520Z,59.75
2022-11-10T20:31:46.683Z,55.83
2022-11-10T20:34:32.739Z,53.90
2022-11-10T20:37:19.595Z,60.72
2022-11-10T20:40:30.352Z,54.78
2022-11-10T20:43:18.591Z,56.58
2022-11-10T20:46:06.730Z,47.42
2022-11-10T20:48:53.340Z,57.63
2022-11-10T20:51:40.300Z,65.07
2022-11-10T20:54:27.765Z,58.28
2022-11-10T20:57:13.578Z,55.72
2022-11-10T21:00:00.523Z,63.35
2022-11-10T21:02:47.618Z,49.75
2022-11-10T21:06:11.408Z,56.22
2022-11-10T21:09:24.781Z,49.95
2022-11-10T21:12:44.212Z,55.75
2022-11-10T21:15:55.477Z,56.13
2022-11-10T21:19:06.123Z,51.10
2022-11-10T21:22:02.741Z,51.65
2022-11-10T21:25:53.669Z,53.53
2022-11-10T21:28:40.640Z,49.53
2022-11-10T21:31:27.720Z,61.05
2022-11-10T21:34:39.178Z,57.25
2022-11-10T21:37:25.912Z,57.00
2022-11-10T21:40:14.473Z,52.13
2022-11-10T21:43:01.972Z,59.47
2022-11-10T21:46:25.155Z,56.00
2022-11-10T21:53:33.247Z,55.70
2022-11-10T22:00:35.071Z,55.20
2022-11-10T22:03:38.540Z,54.70
2022-11-10T22:06:54.284Z,46.90
2022-11-10T22:10:15.216Z,55.20
2022-11-10T22:13:56.176Z,53.40
2022-11-10T22:17:48.019Z,48.47
2022-11-10T22:20:54.349Z,50.08
2022-11-10T22:28:14.001Z,50.17
2022-11-10T22:31:11.777Z,49.40
2022-11-10T22:34:08.154Z,52.33
2022-11-10T22:37:13.483Z,52.20
2022-11-10T22:44:04.919Z,45.90
2022-11-10T22:48:34.625Z,44.50
2022-11-10T22:51:37.730Z,51.60
2022-11-10T22:54:52.774Z,51.20
2022-11-10T22:57:39.854Z,47.45
2022-11-10T23:00:26.620Z,45.60
2022-11-10T23:03:14.232Z,46.60
2022-11-10T23:06:15.280Z,50.85
2022-11-10T23:09:13.426Z,51.17
2022-11-10T23:12:14.699Z,47.05
2022-11-10T23:15:22.091Z,48.25
2022-11-10T23:18:58.310Z,50.15
2022-11-10T23:21:48.045Z,50.83
2022-11-10T23:24:43.153Z,49.28
2022-11-10T23:27:39.803Z,50.35
2022-11-10T23:31:26.989Z,50.33
2022-11-10T23:34:26.293Z,49.80
2022-11-10T23:37:20.608Z,46.38
2022-11-10T23:40:15.936Z,56.83
2022-11-10T23:43:11.260Z,56.63
2022-11-10T23:46:08.096Z,45.65
2022-11-10T23:48:54.634Z,49.47
2022-11-10T23:51:40.996Z,43.15
2022-11-10T23:54:26.984Z,47.03
2022-11-10T23:57:13.123Z,49.42
2022-11-10T23:59:59.356Z,40.53
